sensor_id;sensor_type;location;lat;lon;timestamp;P1;durP1;ratioP1;P2;durP2;ratioP2
48516;SDS011;34310;51.904;4.256;2024-01-06T09:15:27;2.33;;;1.60;;
48516;SDS011;34310;51.904;4.256;2024-01-06T09:17:54;2.85;;;1.70;;
48516;SDS011;34310;51.904;4.256;2024-01-06T09:20:20;2.47;;;1.65;;
48516;SDS011;34310;51.904;4.256;2024-01-06T09:22:47;2.92;;;1.65;;
48516;SDS011;34310;51.904;4.256;2024-01-06T09:25:13;3.22;;;1.80;;
48516;SDS011;34310;51.904;4.256;2024-01-06T09:27:39;2.60;;;1.80;;
48516;SDS011;34310;51.904;4.256;2024-01-06T09:30:06;2.95;;;1.70;;
48516;SDS011;34310;51.904;4.256;2024-01-06T09:32:33;2.45;;;1.77;;
48516;SDS011;34310;51.904;4.256;2024-01-06T09:35:00;2.25;;;1.70;;
48516;SDS011;34310;51.904;4.256;2024-01-06T09:37:26;2.97;;;1.75;;
48516;SDS011;34310;51.904;4.256;2024-01-06T09:39:53;4.68;;;1.50;;
48516;SDS011;34310;51.904;4.256;2024-01-06T09:42:20;1.70;;;1.60;;
48516;SDS011;34310;51.904;4.256;2024-01-06T09:44:47;2.28;;;1.58;;
48516;SDS011;34310;51.904;4.256;2024-01-06T09:47:14;3.05;;;1.50;;
48516;SDS011;34310;51.904;4.256;2024-01-06T09:49:50;3.55;;;1.70;;
48516;SDS011;34310;51.904;4.256;2024-01-06T09:52:19;4.20;;;1.85;;
48516;SDS011;34310;51.904;4.256;2024-01-06T09:54:51;2.20;;;1.80;;
48516;SDS011;34310;51.904;4.256;2024-01-06T09:57:20;2.50;;;1.80;;
48516;SDS011;34310;51.904;4.256;2024-01-06T09:59:47;3.05;;;1.70;;
48516;SDS011;34310;51.904;4.256;2024-01-06T10:02:15;3.08;;;1.75;;
48516;SDS011;34310;51.904;4.256;2024-01-06T10:04:45;2.03;;;1.50;;
48516;SDS011;34310;51.904;4.256;2024-01-06T10:07:12;1.98;;;1.48;;
48516;SDS011;34310;51.904;4.256;2024-01-06T10:09:40;4.55;;;1.50;;
48516;SDS011;34310;51.904;4.256;2024-01-06T10:12:08;2.58;;;1.55;;
48516;SDS011;34310;51.904;4.256;2024-01-06T10:14:35;3.28;;;1.45;;
48516;SDS011;34310;51.904;4.256;2024-01-06T10:17:05;2.67;;;1.40;;
48516;SDS011;34310;51.904;4.256;2024-01-06T10:19:32;2.38;;;1.40;;
48516;SDS011;34310;51.904;4.256;2024-01-06T10:22:01;3.00;;;1.30;;
48516;SDS011;34310;51.904;4.256;2024-01-06T10:24:28;1.73;;;1.50;;
48516;SDS011;34310;51.904;4.256;2024-01-06T10:26:55;1.88;;;1.48;;
48516;SDS011;34310;51.904;4.256;2024-01-06T10:29:22;1.92;;;1.50;;
48516;SDS011;34310;51.904;4.256;2024-01-06T10:31:52;1.48;;;1.27;;
48516;SDS011;34310;51.904;4.256;2024-01-06T10:34:21;2.95;;;1.55;;
48516;SDS011;34310;51.904;4.256;2024-01-06T10:36:49;2.97;;;1.50;;
48516;SDS011;34310;51.904;4.256;2024-01-06T10:39:16;1.95;;;1.30;;
48516;SDS011;34310;51.904;4.256;2024-01-06T10:41:49;3.47;;;1.40;;
48516;SDS011;34310;51.904;4.256;2024-01-06T10:44:23;4.90;;;1.17;;
48516;SDS011;34310;51.904;4.256;2024-01-06T10:46:50;1.85;;;1.20;;
48516;SDS011;34310;51.904;4.256;2024-01-06T10:49:20;2.17;;;1.08;;
48516;SDS011;34310;51.904;4.256;2024-01-06T10:51:48;1.98;;;1.25;;
48516;SDS011;34310;51.904;4.256;2024-01-06T10:54:16;2.55;;;1.15;;
48516;SDS011;34310;51.904;4.256;2024-01-06T10:56:45;2.33;;;1.08;;
48516;SDS011;34310;51.904;4.256;2024-01-06T10:59:12;3.47;;;1.35;;
48516;SDS011;34310;51.904;4.256;2024-01-06T11:01:40;1.58;;;1.10;;
48516;SDS011;34310;51.904;4.256;2024-01-06T11:04:08;2.97;;;1.00;;
48516;SDS011;34310;51.904;4.256;2024-01-06T11:06:34;2.28;;;1.40;;
48516;SDS011;34310;51.904;4.256;2024-01-06T11:09:24;2.10;;;1.10;;
48516;SDS011;34310;51.904;4.256;2024-01-06T11:11:53;1.60;;;0.90;;
48516;SDS011;34310;51.904;4.256;2024-01-06T11:14:24;1.58;;;1.08;;
48516;SDS011;34310;51.904;4.256;2024-01-06T11:16:52;1.30;;;1.00;;
48516;SDS011;34310;51.904;4.256;2024-01-06T11:22:19;2.15;;;1.10;;
48516;SDS011;34310;51.904;4.256;2024-01-06T11:24:56;1.27;;;0.93;;
48516;SDS011;34310;51.904;4.256;2024-01-06T11:27:29;1.17;;;0.95;;
48516;SDS011;34310;51.904;4.256;2024-01-06T11:29:57;2.08;;;0.93;;
48516;SDS011;34310;51.904;4.256;2024-01-06T11:32:32;2.30;;;1.10;;
48516;SDS011;34310;51.904;4.256;2024-01-06T11:40:21;1.30;;;1.20;;
48516;SDS011;34310;51.904;4.256;2024-01-06T11:43:03;1.92;;;1.00;;
48516;SDS011;34310;51.904;4.256;2024-01-06T11:45:35;2.13;;;1.00;;
48516;SDS011;34310;51.904;4.256;2024-01-06T11:48:06;2.25;;;0.93;;
48516;SDS011;34310;51.904;4.256;2024-01-06T11:50:35;2.22;;;1.10;;
48516;SDS011;34310;51.904;4.256;2024-01-06T11:53:03;1.92;;;1.20;;
48516;SDS011;34310;51.904;4.256;2024-01-06T11:55:30;1.33;;;1.05;;
48516;SDS011;34310;51.904;4.256;2024-01-06T11:58:06;1.67;;;1.02;;
48516;SDS011;34310;51.904;4.256;2024-01-06T12:00:33;1.15;;;1.00;;
48516;SDS011;34310;51.904;4.256;2024-01-06T12:03:00;1.88;;;1.10;;
48516;SDS011;34310;51.904;4.256;2024-01-06T12:05:28;1.58;;;1.20;;
48516;SDS011;34310;51.904;4.256;2024-01-06T12:07:55;1.10;;;0.90;;
48516;SDS011;34310;51.904;4.256;2024-01-06T12:10:23;1.20;;;1.02;;
48516;SDS011;34310;51.904;4.256;2024-01-06T12:13:04;1.77;;;1.10;;
48516;SDS011;34310;51.904;4.256;2024-01-06T12:15:32;1.63;;;1.10;;
48516;SDS011;34310;51.904;4.256;2024-01-06T12:18:02;3.05;;;1.08;;
48516;SDS011;34310;51.904;4.256;2024-01-06T12:20:29;1.50;;;1.08;;
48516;SDS011;34310;51.904;4.256;2024-01-06T12:22:57;2.60;;;1.00;;
48516;SDS011;34310;51.904;4.256;2024-01-06T12:25:24;1.33;;;1.00;;
48516;SDS011;34310;51.904;4.256;2024-01-06T12:27:52;1.20;;;1.10;;
48516;SDS011;34310;51.904;4.256;2024-01-06T12:30:19;2.75;;;1.10;;
48516;SDS011;34310;51.904;4.256;2024-01-06T12:32:49;2.05;;;1.20;;
48516;SDS011;34310;51.904;4.256;2024-01-06T12:35:17;1.77;;;1.20;;
48516;SDS011;34310;51.904;4.256;2024-01-06T12:37:44;1.42;;;1.10;;
48516;SDS011;34310;51.904;4.256;2024-01-06T12:40:11;1.65;;;1.20;;
48516;SDS011;34310;51.904;4.256;2024-01-06T12:42:39;1.63;;;1.20;;
48516;SDS011;34310;51.904;4.256;2024-01-06T12:45:06;2.28;;;1.17;;
48516;SDS011;34310;51.904;4.256;2024-01-06T12:47:33;2.47;;;1.38;;
48516;SDS011;34310;51.904;4.256;2024-01-06T12:50:00;1.95;;;1.10;;
48516;SDS011;34310;51.904;4.256;2024-01-06T12:52:26;1.42;;;1.10;;
48516;SDS011;34310;51.904;4.256;2024-01-06T12:54:53;2.60;;;1.30;;
48516;SDS011;34310;51.904;4.256;2024-01-06T12:57:19;4.30;;;1.42;;
48516;SDS011;34310;51.904;4.256;2024-01-06T12:59:46;1.17;;;1.08;;
48516;SDS011;34310;51.904;4.256;2024-01-06T13:02:13;1.85;;;1.33;;
48516;SDS011;34310;51.904;4.256;2024-01-06T13:04:39;1.63;;;1.20;;
48516;SDS011;34310;51.904;4.256;2024-01-06T13:07:06;1.90;;;1.50;;
48516;SDS011;34310;51.904;4.256;2024-01-06T13:09:32;5.95;;;1.30;;
48516;SDS011;34310;51.904;4.256;2024-01-06T13:11:59;1.95;;;1.55;;
48516;SDS011;34310;51.904;4.256;2024-01-06T13:14:26;1.60;;;1.20;;
48516;SDS011;34310;51.904;4.256;2024-01-06T13:16:53;1.38;;;1.17;;
48516;SDS011;34310;51.904;4.256;2024-01-06T13:19:19;2.08;;;1.30;;
48516;SDS011;34310;51.904;4.256;2024-01-06T13:21:46;3.28;;;1.23;;
48516;SDS011;34310;51.904;4.256;2024-01-06T13:24:12;3.58;;;1.33;;
48516;SDS011;34310;51.904;4.256;2024-01-06T13:26:39;1.52;;;1.27;;
48516;SDS011;34310;51.904;4.256;2024-01-06T13:29:06;1.60;;;1.40;;
48516;SDS011;34310;51.904;4.256;2024-01-06T13:31:32;3.00;;;1.38;;
48516;SDS011;34310;51.904;4.256;2024-01-06T13:33:59;3.13;;;1.73;;
48516;SDS011;34310;51.904;4.256;2024-01-06T13:36:26;3.38;;;1.30;;
48516;SDS011;34310;51.904;4.256;2024-01-06T13:38:52;3.40;;;1.20;;
48516;SDS011;34310;51.904;4.256;2024-01-06T13:41:19;2.33;;;1.25;;
48516;SDS011;34310;51.904;4.256;2024-01-06T13:43:45;1.83;;;1.15;;
48516;SDS011;34310;51.904;4.256;2024-01-06T13:46:12;3.78;;;1.30;;
48516;SDS011;34310;51.904;4.256;2024-01-06T13:48:38;1.42;;;1.20;;
48516;SDS011;34310;51.904;4.256;2024-01-06T13:51:05;1.70;;;1.25;;
48516;SDS011;34310;51.904;4.256;2024-01-06T13:53:31;2.95;;;1.20;;
48516;SDS011;34310;51.904;4.256;2024-01-06T13:55:58;1.50;;;1.30;;
48516;SDS011;34310;51.904;4.256;2024-01-06T13:58:24;3.55;;;1.23;;
48516;SDS011;34310;51.904;4.256;2024-01-06T14:00:51;2.75;;;1.13;;
48516;SDS011;34310;51.904;4.256;2024-01-06T14:03:17;1.48;;;1.13;;
48516;SDS011;34310;51.904;4.256;2024-01-06T14:05:44;2.83;;;1.40;;
48516;SDS011;34310;51.904;4.256;2024-01-06T14:08:11;1.60;;;1.33;;
48516;SDS011;34310;51.904;4.256;2024-01-06T14:10:37;1.83;;;1.30;;
48516;SDS011;34310;51.904;4.256;2024-01-06T14:13:04;3.75;;;1.30;;
48516;SDS011;34310;51.904;4.256;2024-01-06T14:15:30;2.05;;;1.40;;
48516;SDS011;34310;51.904;4.256;2024-01-06T14:17:57;2.13;;;1.25;;
48516;SDS011;34310;51.904;4.256;2024-01-06T14:20:24;1.85;;;1.25;;
48516;SDS011;34310;51.904;4.256;2024-01-06T14:22:50;1.95;;;1.25;;
48516;SDS011;34310;51.904;4.256;2024-01-06T14:25:16;1.50;;;1.17;;
48516;SDS011;34310;51.904;4.256;2024-01-06T14:27:43;4.05;;;1.40;;
48516;SDS011;34310;51.904;4.256;2024-01-06T14:30:10;1.63;;;1.38;;
48516;SDS011;34310;51.904;4.256;2024-01-06T14:32:37;1.38;;;1.10;;
48516;SDS011;34310;51.904;4.256;2024-01-06T14:35:07;2.08;;;1.23;;
48516;SDS011;34310;51.904;4.256;2024-01-06T14:37:33;2.15;;;1.42;;
48516;SDS011;34310;51.904;4.256;2024-01-06T14:40:00;1.67;;;1.27;;
48516;SDS011;34310;51.904;4.256;2024-01-06T14:42:27;1.70;;;1.35;;
48516;SDS011;34310;51.904;4.256;2024-01-06T14:44:53;3.40;;;1.42;;
48516;SDS011;34310;51.904;4.256;2024-01-06T14:47:20;1.85;;;1.50;;
48516;SDS011;34310;51.904;4.256;2024-01-06T14:49:46;3.35;;;1.40;;
48516;SDS011;34310;51.904;4.256;2024-01-06T14:52:13;5.03;;;1.75;;
48516;SDS011;34310;51.904;4.256;2024-01-06T14:54:39;2.42;;;1.38;;
48516;SDS011;34310;51.904;4.256;2024-01-06T14:57:06;1.50;;;1.23;;
48516;SDS011;34310;51.904;4.256;2024-01-06T14:59:32;1.65;;;1.13;;
48516;SDS011;34310;51.904;4.256;2024-01-06T15:01:59;1.98;;;1.20;;
48516;SDS011;34310;51.904;4.256;2024-01-06T15:04:25;1.52;;;1.27;;
48516;SDS011;34310;51.904;4.256;2024-01-06T15:06:56;2.47;;;1.42;;
48516;SDS011;34310;51.904;4.256;2024-01-06T15:09:23;1.48;;;1.30;;
48516;SDS011;34310;51.904;4.256;2024-01-06T15:11:49;2.33;;;1.60;;
48516;SDS011;34310;51.904;4.256;2024-01-06T15:14:16;2.63;;;1.30;;
48516;SDS011;34310;51.904;4.256;2024-01-06T15:16:42;3.03;;;1.70;;
48516;SDS011;34310;51.904;4.256;2024-01-06T15:19:09;3.22;;;1.30;;
48516;SDS011;34310;51.904;4.256;2024-01-06T15:21:35;2.33;;;1.30;;
48516;SDS011;34310;51.904;4.256;2024-01-06T15:24:02;1.55;;;1.20;;
48516;SDS011;34310;51.904;4.256;2024-01-06T15:26:29;2.40;;;1.23;;
48516;SDS011;34310;51.904;4.256;2024-01-06T15:28:56;2.40;;;1.20;;
48516;SDS011;34310;51.904;4.256;2024-01-06T15:31:22;1.30;;;1.20;;
48516;SDS011;34310;51.904;4.256;2024-01-06T15:33:49;2.45;;;1.40;;
48516;SDS011;34310;51.904;4.256;2024-01-06T15:36:16;1.85;;;1.30;;
48516;SDS011;34310;51.904;4.256;2024-01-06T15:38:42;1.63;;;1.27;;
48516;SDS011;34310;51.904;4.256;2024-01-06T15:41:09;2.70;;;1.10;;
48516;SDS011;34310;51.904;4.256;2024-01-06T15:43:35;2.58;;;1.42;;
48516;SDS011;34310;51.904;4.256;2024-01-06T15:46:02;6.15;;;1.80;;
48516;SDS011;34310;51.904;4.256;2024-01-06T15:48:28;2.30;;;1.40;;
48516;SDS011;34310;51.904;4.256;2024-01-06T15:50:55;3.47;;;1.45;;
48516;SDS011;34310;51.904;4.256;2024-01-06T15:53:22;4.90;;;1.23;;
48516;SDS011;34310;51.904;4.256;2024-01-06T15:55:48;9.73;;;1.33;;
48516;SDS011;34310;51.904;4.256;2024-01-06T15:58:14;10.32;;;1.33;;
48516;SDS011;34310;51.904;4.256;2024-01-06T16:00:41;2.85;;;1.20;;
48516;SDS011;34310;51.904;4.256;2024-01-06T16:03:08;3.50;;;1.90;;
48516;SDS011;34310;51.904;4.256;2024-01-06T16:05:34;13.55;;;4.60;;
48516;SDS011;34310;51.904;4.256;2024-01-06T16:08:36;11.80;;;4.95;;
48516;SDS011;34310;51.904;4.256;2024-01-06T16:11:02;12.40;;;5.18;;
48516;SDS011;34310;51.904;4.256;2024-01-06T16:13:29;14.02;;;4.57;;
48516;SDS011;34310;51.904;4.256;2024-01-06T16:15:55;10.38;;;4.68;;
48516;SDS011;34310;51.904;4.256;2024-01-06T16:20:02;11.02;;;4.55;;
48516;SDS011;34310;51.904;4.256;2024-01-06T16:22:32;14.68;;;4.53;;
48516;SDS011;34310;51.904;4.256;2024-01-06T16:24:59;11.40;;;4.30;;
48516;SDS011;34310;51.904;4.256;2024-01-06T16:27:25;9.68;;;3.70;;
48516;SDS011;34310;51.904;4.256;2024-01-06T16:29:52;12.88;;;3.80;;
48516;SDS011;34310;51.904;4.256;2024-01-06T20:14:10;3.78;;;2.92;;
48516;SDS011;34310;51.904;4.256;2024-01-06T20:16:36;4.20;;;2.47;;
48516;SDS011;34310;51.904;4.256;2024-01-06T20:19:03;4.15;;;2.75;;
48516;SDS011;34310;51.904;4.256;2024-01-06T20:21:29;3.83;;;2.65;;
48516;SDS011;34310;51.904;4.256;2024-01-06T20:23:56;6.30;;;3.10;;
48516;SDS011;34310;51.904;4.256;2024-01-06T20:26:22;5.97;;;3.05;;
48516;SDS011;34310;51.904;4.256;2024-01-06T20:28:49;4.15;;;2.55;;
48516;SDS011;34310;51.904;4.256;2024-01-06T20:31:15;3.13;;;2.60;;
48516;SDS011;34310;51.904;4.256;2024-01-06T20:33:42;3.90;;;2.95;;
48516;SDS011;34310;51.904;4.256;2024-01-06T20:36:09;4.47;;;2.65;;
48516;SDS011;34310;51.904;4.256;2024-01-06T20:38:35;4.55;;;2.60;;
48516;SDS011;34310;51.904;4.256;2024-01-06T20:41:02;4.22;;;2.40;;
48516;SDS011;34310;51.904;4.256;2024-01-06T20:43:29;4.47;;;2.50;;
48516;SDS011;34310;51.904;4.256;2024-01-06T20:45:55;3.45;;;2.47;;
48516;SDS011;34310;51.904;4.256;2024-01-06T20:48:22;2.97;;;2.53;;
48516;SDS011;34310;51.904;4.256;2024-01-06T20:50:48;4.38;;;2.50;;
48516;SDS011;34310;51.904;4.256;2024-01-06T20:53:15;3.13;;;2.33;;
48516;SDS011;34310;51.904;4.256;2024-01-06T20:55:41;3.33;;;2.40;;
48516;SDS011;34310;51.904;4.256;2024-01-06T20:58:08;3.25;;;2.40;;
48516;SDS011;34310;51.904;4.256;2024-01-06T21:00:34;2.70;;;2.20;;
48516;SDS011;34310;51.904;4.256;2024-01-06T21:03:01;2.70;;;2.40;;
48516;SDS011;34310;51.904;4.256;2024-01-06T21:05:28;3.22;;;2.20;;
48516;SDS011;34310;51.904;4.256;2024-01-06T21:07:55;3.38;;;2.40;;
48516;SDS011;34310;51.904;4.256;2024-01-06T21:10:22;4.15;;;2.42;;
48516;SDS011;34310;51.904;4.256;2024-01-06T21:12:49;2.97;;;2.20;;
48516;SDS011;34310;51.904;4.256;2024-01-06T21:15:15;2.90;;;2.30;;
48516;SDS011;34310;51.904;4.256;2024-01-06T21:17:42;4.65;;;2.45;;
48516;SDS011;34310;51.904;4.256;2024-01-06T21:20:08;3.78;;;2.30;;
48516;SDS011;34310;51.904;4.256;2024-01-06T21:22:35;4.35;;;2.40;;
48516;SDS011;34310;51.904;4.256;2024-01-06T21:25:02;4.50;;;2.20;;
48516;SDS011;34310;51.904;4.256;2024-01-06T21:27:29;2.33;;;2.10;;
48516;SDS011;34310;51.904;4.256;2024-01-06T21:29:56;4.82;;;2.95;;
48516;SDS011;34310;51.904;4.256;2024-01-06T21:32:22;2.70;;;2.25;;
48516;SDS011;34310;51.904;4.256;2024-01-06T21:34:49;3.28;;;2.30;;
48516;SDS011;34310;51.904;4.256;2024-01-06T21:37:15;2.53;;;2.15;;
48516;SDS011;34310;51.904;4.256;2024-01-06T21:39:42;2.25;;;2.00;;
48516;SDS011;34310;51.904;4.256;2024-01-06T21:42:08;3.22;;;2.22;;
48516;SDS011;34310;51.904;4.256;2024-01-06T21:44:35;2.65;;;2.10;;
48516;SDS011;34310;51.904;4.256;2024-01-06T21:47:01;3.03;;;2.22;;
48516;SDS011;34310;51.904;4.256;2024-01-06T21:49:29;2.30;;;2.00;;
48516;SDS011;34310;51.904;4.256;2024-01-06T21:51:56;3.40;;;2.45;;
48516;SDS011;34310;51.904;4.256;2024-01-06T21:54:22;2.95;;;2.28;;
48516;SDS011;34310;51.904;4.256;2024-01-06T21:56:49;2.80;;;2.05;;
48516;SDS011;34310;51.904;4.256;2024-01-06T21:59:15;3.38;;;2.40;;
48516;SDS011;34310;51.904;4.256;2024-01-06T22:01:42;2.83;;;2.28;;
48516;SDS011;34310;51.904;4.256;2024-01-06T22:04:09;2.20;;;2.00;;
48516;SDS011;34310;51.904;4.256;2024-01-06T22:06:35;2.85;;;2.05;;
48516;SDS011;34310;51.904;4.256;2024-01-06T22:09:02;2.63;;;2.20;;
48516;SDS011;34310;51.904;4.256;2024-01-06T22:11:38;2.35;;;2.15;;
48516;SDS011;34310;51.904;4.256;2024-01-06T22:14:04;2.60;;;2.33;;
48516;SDS011;34310;51.904;4.256;2024-01-06T22:16:31;2.75;;;1.95;;
48516;SDS011;34310;51.904;4.256;2024-01-06T22:18:57;2.60;;;2.20;;
48516;SDS011;34310;51.904;4.256;2024-01-06T22:21:24;2.75;;;2.35;;
48516;SDS011;34310;51.904;4.256;2024-01-06T22:23:50;2.67;;;2.28;;
48516;SDS011;34310;51.904;4.256;2024-01-06T22:26:17;2.53;;;2.00;;
48516;SDS011;34310;51.904;4.256;2024-01-06T22:28:43;2.53;;;2.30;;
48516;SDS011;34310;51.904;4.256;2024-01-06T22:31:10;2.55;;;2.30;;
48516;SDS011;34310;51.904;4.256;2024-01-06T22:33:36;3.22;;;2.40;;
48516;SDS011;34310;51.904;4.256;2024-01-06T22:36:09;2.10;;;1.90;;
48516;SDS011;34310;51.904;4.256;2024-01-06T22:38:36;2.50;;;2.17;;
48516;SDS011;34310;51.904;4.256;2024-01-06T22:41:19;2.15;;;1.98;;
48516;SDS011;34310;51.904;4.256;2024-01-06T22:43:46;2.80;;;2.22;;
48516;SDS011;34310;51.904;4.256;2024-01-06T22:46:12;2.10;;;1.90;;
48516;SDS011;34310;51.904;4.256;2024-01-06T22:48:39;2.67;;;2.20;;
48516;SDS011;34310;51.904;4.256;2024-01-06T22:51:05;2.00;;;1.85;;
48516;SDS011;34310;51.904;4.256;2024-01-06T22:53:32;2.55;;;2.13;;
48516;SDS011;34310;51.904;4.256;2024-01-06T22:55:58;2.35;;;2.13;;
48516;SDS011;34310;51.904;4.256;2024-01-06T22:58:25;2.20;;;2.00;;
48516;SDS011;34310;51.904;4.256;2024-01-06T23:00:51;2.97;;;2.22;;
48516;SDS011;34310;51.904;4.256;2024-01-06T23:03:19;2.80;;;2.38;;
48516;SDS011;34310;51.904;4.256;2024-01-06T23:05:45;3.08;;;2.55;;
48516;SDS011;34310;51.904;4.256;2024-01-06T23:08:12;2.58;;;2.10;;
48516;SDS011;34310;51.904;4.256;2024-01-06T23:10:39;3.22;;;2.60;;
48516;SDS011;34310;51.904;4.256;2024-01-06T23:13:05;2.60;;;2.40;;
48516;SDS011;34310;51.904;4.256;2024-01-06T23:15:32;2.50;;;2.30;;
48516;SDS011;34310;51.904;4.256;2024-01-06T23:17:58;2.35;;;2.10;;
48516;SDS011;34310;51.904;4.256;2024-01-06T23:20:25;3.03;;;2.60;;
48516;SDS011;34310;51.904;4.256;2024-01-06T23:22:51;3.28;;;2.55;;
48516;SDS011;34310;51.904;4.256;2024-01-06T23:25:18;3.05;;;2.60;;
48516;SDS011;34310;51.904;4.256;2024-01-06T23:27:45;2.78;;;2.47;;
48516;SDS011;34310;51.904;4.256;2024-01-06T23:30:11;2.58;;;2.38;;
48516;SDS011;34310;51.904;4.256;2024-01-06T23:32:38;3.20;;;2.60;;
48516;SDS011;34310;51.904;4.256;2024-01-06T23:35:05;2.60;;;2.40;;
48516;SDS011;34310;51.904;4.256;2024-01-06T23:37:32;2.65;;;2.42;;
48516;SDS011;34310;51.904;4.256;2024-01-06T23:39:58;2.85;;;2.47;;
48516;SDS011;34310;51.904;4.256;2024-01-06T23:42:25;2.72;;;2.42;;
48516;SDS011;34310;51.904;4.256;2024-01-06T23:44:52;3.15;;;2.80;;
48516;SDS011;34310;51.904;4.256;2024-01-06T23:47:19;2.90;;;2.60;;
48516;SDS011;34310;51.904;4.256;2024-01-06T23:49:45;2.80;;;2.58;;
48516;SDS011;34310;51.904;4.256;2024-01-06T23:52:12;2.95;;;2.65;;
48516;SDS011;34310;51.904;4.256;2024-01-06T23:54:39;2.70;;;2.50;;
48516;SDS011;34310;51.904;4.256;2024-01-06T23:57:06;2.60;;;2.33;;
48516;SDS011;34310;51.904;4.256;2024-01-06T23:59:33;2.85;;;2.55;;
